createdAt,value
2019-03-12T00:00:54.538Z,3.22
2019-03-12T00:01:54.528Z,3.30
2019-03-12T00:02:54.513Z,3.23
2019-03-12T00:03:54.494Z,3.26
2019-03-12T00:04:54.492Z,3.23
2019-03-12T00:05:54.494Z,3.19
2019-03-12T00:06:54.467Z,3.20
2019-03-12T00:07:54.459Z,3.17
2019-03-12T00:08:54.435Z,3.16
2019-03-12T00:09:54.433Z,3.15
2019-03-12T00:10:54.447Z,3.20
2019-03-12T00:11:54.413Z,3.22
2019-03-12T00:12:54.412Z,3.16
2019-03-12T00:13:54.399Z,3.25
2019-03-12T00:14:54.419Z,3.23
2019-03-12T00:15:54.372Z,3.28
2019-03-12T00:16:54.367Z,3.19
2019-03-12T00:17:54.370Z,3.26
2019-03-12T00:18:54.341Z,3.20
2019-03-12T00:19:54.328Z,3.20
2019-03-12T00:20:54.344Z,3.19
2019-03-12T00:21:54.311Z,3.22
2019-03-12T00:22:54.307Z,3.30
2019-03-12T00:23:54.294Z,3.22
2019-03-12T00:24:54.286Z,3.17
2019-03-12T00:25:54.263Z,3.20
2019-03-12T00:26:54.292Z,3.23
2019-03-12T00:27:54.240Z,3.20
2019-03-12T00:28:54.252Z,3.10
2019-03-12T00:29:54.229Z,3.10
2019-03-12T00:30:54.226Z,3.10
2019-03-12T00:31:54.201Z,3.07
2019-03-12T00:32:55.725Z,3.05
2019-03-12T00:33:54.185Z,3.05
2019-03-12T00:34:54.175Z,3.05
2019-03-12T00:35:54.183Z,3.02
2019-03-12T00:36:54.153Z,2.97
2019-03-12T00:37:54.169Z,2.81
2019-03-12T00:38:54.124Z,2.89
2019-03-12T00:39:54.116Z,2.87
2019-03-12T00:40:54.111Z,2.92
2019-03-12T00:41:54.109Z,2.83
2019-03-12T00:42:54.102Z,2.92
2019-03-12T00:43:54.109Z,2.95
2019-03-12T00:44:54.070Z,2.92
2019-03-12T00:45:54.053Z,2.73
2019-03-12T00:46:54.053Z,2.84
2019-03-12T00:47:54.047Z,2.76
2019-03-12T00:48:54.044Z,2.92
2019-03-12T00:49:54.044Z,2.87
2019-03-12T00:50:54.038Z,2.86
2019-03-12T00:51:53.992Z,2.90
2019-03-12T00:52:53.989Z,2.90
2019-03-12T00:53:53.989Z,2.87
2019-03-12T00:54:53.995Z,2.90
2019-03-12T00:55:53.962Z,2.92
2019-03-12T00:56:53.964Z,2.81
2019-03-12T00:57:53.931Z,2.87
2019-03-12T00:58:53.922Z,2.92
2019-03-12T00:59:56.271Z,2.92
2019-03-12T01:00:53.896Z,2.97
2019-03-12T01:01:53.930Z,2.83
2019-03-12T01:02:53.883Z,2.92
2019-03-12T01:03:53.869Z,2.80
2019-03-12T01:04:53.863Z,2.81
2019-03-12T01:05:53.855Z,2.89
2019-03-12T01:06:53.846Z,2.80
2019-03-12T01:07:53.860Z,2.90
2019-03-12T01:08:53.824Z,2.80
2019-03-12T01:09:53.804Z,2.95
2019-03-12T01:10:53.802Z,2.95
2019-03-12T01:11:53.787Z,2.98
2019-03-12T01:12:53.794Z,3.01
2019-03-12T01:13:53.770Z,3.05
2019-03-12T01:14:53.759Z,3.07
2019-03-12T01:15:53.749Z,2.97
2019-03-12T01:16:53.746Z,3.10
2019-03-12T01:17:53.751Z,3.02
2019-03-12T01:18:53.712Z,3.08
2019-03-12T01:19:53.710Z,3.08
2019-03-12T01:20:53.702Z,3.05
2019-03-12T01:21:53.682Z,3.08
2019-03-12T01:22:53.695Z,3.08
2019-03-12T01:23:53.665Z,3.08
2019-03-12T01:24:53.649Z,3.16
2019-03-12T01:25:53.650Z,3.13
2019-03-12T01:26:53.635Z,3.19
2019-03-12T01:27:53.653Z,3.16
2019-03-12T01:28:53.621Z,3.28
2019-03-12T01:29:53.603Z,3.19
2019-03-12T01:30:53.588Z,3.22
2019-03-12T01:31:53.577Z,3.26
2019-03-12T01:32:53.601Z,3.25
2019-03-12T01:33:53.574Z,3.23
2019-03-12T01:34:53.571Z,3.23
2019-03-12T01:35:53.551Z,3.17
2019-03-12T01:36:53.548Z,3.17
2019-03-12T01:37:53.530Z,3.26
2019-03-12T01:38:53.540Z,3.28
2019-03-12T01:39:53.527Z,3.22
2019-03-12T01:40:53.511Z,3.30
2019-03-12T01:41:53.490Z,3.30
2019-03-12T01:42:53.488Z,3.44
2019-03-12T01:43:53.495Z,3.30
2019-03-12T01:44:53.456Z,3.20
2019-03-12T01:45:53.451Z,3.17
2019-03-12T01:46:53.434Z,3.20
2019-03-12T01:47:53.427Z,3.33
2019-03-12T01:48:53.418Z,3.22
2019-03-12T01:49:53.434Z,3.25
2019-03-12T01:50:53.392Z,3.28
2019-03-12T01:51:53.383Z,3.22
2019-03-12T01:52:53.369Z,3.22
2019-03-12T01:53:53.353Z,3.23
2019-03-12T01:54:53.371Z,3.23
2019-03-12T01:55:53.329Z,3.22
2019-03-12T01:56:53.320Z,3.23
2019-03-12T01:57:53.317Z,3.25
2019-03-12T01:58:53.303Z,3.33
2019-03-12T01:59:53.307Z,3.31
2019-03-12T02:00:53.313Z,3.23
2019-03-12T02:01:53.268Z,3.25
2019-03-12T02:02:53.254Z,3.33
2019-03-12T02:03:53.246Z,3.31
2019-03-12T02:04:53.237Z,3.34
2019-03-12T02:05:53.251Z,3.22
2019-03-12T02:06:53.219Z,3.22
2019-03-12T02:07:53.203Z,3.42
2019-03-12T02:08:53.191Z,3.25
2019-03-12T02:09:53.187Z,3.37
2019-03-12T02:10:53.205Z,3.34
2019-03-12T02:11:53.174Z,3.37
2019-03-12T02:12:53.158Z,3.35
2019-03-12T02:13:53.147Z,3.23
2019-03-12T02:14:53.133Z,3.35
2019-03-12T02:15:53.121Z,3.35
2019-03-12T02:16:53.129Z,3.33
2019-03-12T02:17:53.112Z,3.39
2019-03-12T02:18:53.096Z,3.30
2019-03-12T02:19:53.085Z,3.42
2019-03-12T02:20:53.079Z,3.39
2019-03-12T02:21:53.090Z,3.44
2019-03-12T02:22:53.053Z,3.41
2019-03-12T02:23:53.044Z,3.44
2019-03-12T02:24:53.282Z,3.44
2019-03-12T02:25:53.028Z,3.37
2019-03-12T02:26:53.010Z,3.44
2019-03-12T02:27:53.020Z,3.49
2019-03-12T02:28:52.990Z,3.50
2019-03-12T02:29:52.988Z,3.45
2019-03-12T02:30:52.992Z,3.50
2019-03-12T02:31:52.963Z,3.46
2019-03-12T02:32:52.970Z,3.50
2019-03-12T02:33:52.935Z,3.53
2019-03-12T02:34:52.928Z,3.52
2019-03-12T02:35:52.934Z,3.54
2019-03-12T02:36:52.902Z,3.56
2019-03-12T02:37:52.901Z,3.57
2019-03-12T02:38:52.909Z,3.52
2019-03-12T02:39:52.875Z,3.49
2019-03-12T02:40:52.859Z,3.54
2019-03-12T02:41:52.878Z,3.46
2019-03-12T02:42:52.845Z,3.44
2019-03-12T02:43:52.859Z,3.42
2019-03-12T02:44:52.835Z,3.44
2019-03-12T02:45:52.812Z,3.42
2019-03-12T02:46:52.802Z,3.46
2019-03-12T02:47:52.814Z,3.49
2019-03-12T02:48:52.781Z,3.52
2019-03-12T02:49:52.784Z,3.59
2019-03-12T02:50:52.798Z,3.60
2019-03-12T02:51:52.758Z,3.52
2019-03-12T02:52:52.750Z,3.54
2019-03-12T02:53:52.729Z,3.56
2019-03-12T02:54:52.717Z,3.59
2019-03-12T02:55:52.736Z,3.54
2019-03-12T02:56:52.704Z,3.49
2019-03-12T02:57:52.689Z,3.57
2019-03-12T02:58:52.694Z,3.54
2019-03-12T02:59:52.663Z,3.57
2019-03-12T03:00:52.696Z,3.67
2019-03-12T03:01:52.648Z,3.60
2019-03-12T03:02:52.661Z,3.59
2019-03-12T03:03:52.632Z,3.71
2019-03-12T03:04:54.186Z,3.72
2019-03-12T03:05:52.599Z,3.54
2019-03-12T03:06:52.608Z,3.53
2019-03-12T03:07:52.605Z,3.60
2019-03-12T03:08:52.571Z,3.60
2019-03-12T03:09:52.606Z,3.54
2019-03-12T03:10:52.558Z,3.56
2019-03-12T03:11:52.558Z,3.59
2019-03-12T03:12:52.534Z,3.67
2019-03-12T03:13:52.522Z,3.68
2019-03-12T03:14:52.530Z,3.67
2019-03-12T03:15:52.513Z,3.70
2019-03-12T03:16:52.513Z,3.59
2019-03-12T03:17:52.472Z,3.67
2019-03-12T03:18:52.462Z,3.56
2019-03-12T03:19:52.450Z,3.56
2019-03-12T03:20:52.443Z,3.60
2019-03-12T03:21:52.465Z,3.72
2019-03-12T03:22:52.454Z,3.62
2019-03-12T03:23:52.423Z,3.60
2019-03-12T03:24:52.406Z,3.59
2019-03-12T03:25:52.389Z,3.57
2019-03-12T03:26:52.398Z,3.54
2019-03-12T03:27:52.407Z,3.59
2019-03-12T03:28:52.390Z,3.56
2019-03-12T03:29:52.349Z,3.56
2019-03-12T03:30:52.338Z,3.63
2019-03-12T03:31:52.335Z,3.67
2019-03-12T03:32:52.324Z,3.74
2019-03-12T03:33:52.337Z,3.72
2019-03-12T03:34:52.317Z,3.54
2019-03-12T03:35:52.296Z,3.63
2019-03-12T03:36:52.285Z,3.63
2019-03-12T03:37:52.267Z,3.59
2019-03-12T03:38:52.286Z,3.56
2019-03-12T03:39:52.249Z,3.54
2019-03-12T03:40:52.256Z,3.64
2019-03-12T03:41:52.251Z,3.56
2019-03-12T03:42:52.226Z,3.67
2019-03-12T03:43:52.210Z,3.60
2019-03-12T03:44:52.200Z,3.70
2019-03-12T03:45:52.213Z,3.57
2019-03-12T03:46:52.204Z,3.71
2019-03-12T03:47:52.172Z,3.72
2019-03-12T03:48:52.161Z,3.72
2019-03-12T03:49:52.145Z,3.81
2019-03-12T03:50:52.167Z,3.78
2019-03-12T03:51:52.146Z,3.74
2019-03-12T03:52:52.171Z,3.74
2019-03-12T03:53:52.108Z,3.70
2019-03-12T03:54:52.095Z,3.72
2019-03-12T03:55:52.102Z,3.75
2019-03-12T03:56:52.101Z,3.74
2019-03-12T03:57:52.061Z,3.74
2019-03-12T03:58:52.053Z,3.74
2019-03-12T03:59:52.043Z,3.81
2019-03-12T04:00:52.036Z,3.78
2019-03-12T04:01:52.052Z,3.77
2019-03-12T04:02:52.100Z,3.81
2019-03-12T04:03:52.010Z,3.72
2019-03-12T04:04:51.991Z,3.80
2019-03-12T04:05:51.986Z,3.81
2019-03-12T04:06:51.977Z,3.75
2019-03-12T04:07:51.993Z,3.81
2019-03-12T04:08:51.961Z,3.70
2019-03-12T04:09:51.942Z,3.80
2019-03-12T04:10:51.927Z,3.78
2019-03-12T04:11:51.918Z,3.78
2019-03-12T04:12:51.903Z,3.77
2019-03-12T04:13:51.933Z,3.84
2019-03-12T04:14:51.889Z,3.89
2019-03-12T04:15:51.871Z,3.84
2019-03-12T04:16:51.863Z,3.78
2019-03-12T04:17:51.858Z,3.80
2019-03-12T04:18:51.865Z,3.72
2019-03-12T04:19:51.855Z,3.88
2019-03-12T04:20:51.827Z,3.72
2019-03-12T04:21:51.810Z,3.75
2019-03-12T04:22:52.268Z,3.72
2019-03-12T04:23:51.827Z,3.78
2019-03-12T04:24:51.784Z,3.86
2019-03-12T04:25:51.773Z,3.74
2019-03-12T04:26:51.766Z,3.75
2019-03-12T04:27:51.752Z,3.74
2019-03-12T04:28:51.741Z,3.72
2019-03-12T04:29:51.758Z,3.75
2019-03-12T04:30:51.713Z,3.75
2019-03-12T04:31:51.711Z,3.81
2019-03-12T04:32:51.706Z,3.89
2019-03-12T04:33:51.688Z,3.96
2019-03-12T04:34:51.671Z,3.86
2019-03-12T04:35:51.677Z,3.86
2019-03-12T04:36:51.655Z,3.81
2019-03-12T04:37:51.646Z,3.82
2019-03-12T04:38:51.638Z,3.81
2019-03-12T04:39:51.646Z,3.81
2019-03-12T04:40:51.621Z,3.96
2019-03-12T04:41:51.600Z,3.88
2019-03-12T04:42:51.596Z,3.86
2019-03-12T04:43:51.581Z,3.84
2019-03-12T04:44:51.588Z,3.81
2019-03-12T04:45:51.564Z,3.89
2019-03-12T04:46:51.556Z,3.96
2019-03-12T04:47:51.534Z,3.84
2019-03-12T04:48:51.528Z,3.84
2019-03-12T04:49:51.551Z,3.84
2019-03-12T04:50:51.520Z,3.88
2019-03-12T04:51:51.501Z,3.88
2019-03-12T04:52:51.490Z,3.89
2019-03-12T04:53:51.474Z,3.90
2019-03-12T04:54:51.461Z,3.84
2019-03-12T04:56:00.029Z,3.92
2019-03-12T04:56:51.448Z,3.81
2019-03-12T04:57:51.439Z,3.93
2019-03-12T04:58:51.431Z,3.86
2019-03-12T04:59:51.412Z,3.90
2019-03-12T05:00:51.425Z,3.89
2019-03-12T05:01:51.394Z,3.96
2019-03-12T05:02:51.394Z,3.88
2019-03-12T05:03:51.395Z,3.82
2019-03-12T05:04:51.356Z,3.78
2019-03-12T05:05:51.374Z,3.81
2019-03-12T05:06:51.338Z,3.86
2019-03-12T05:07:51.333Z,3.71
2019-03-12T05:08:51.339Z,3.75
2019-03-12T05:09:51.316Z,3.80
2019-03-12T05:10:51.331Z,3.88
2019-03-12T05:11:59.650Z,3.72
2019-03-12T05:12:51.274Z,3.78
2019-03-12T05:13:51.271Z,3.75
2019-03-12T05:14:51.343Z,3.78
2019-03-12T05:15:51.251Z,3.82
2019-03-12T05:16:51.261Z,3.80
2019-03-12T05:17:51.230Z,3.86
2019-03-12T05:18:51.216Z,3.86
2019-03-12T05:19:51.207Z,3.78
2019-03-12T05:20:51.210Z,3.78
2019-03-12T05:21:51.216Z,3.80
2019-03-12T05:22:51.171Z,3.71
2019-03-12T05:23:51.163Z,3.78
2019-03-12T05:24:51.149Z,3.81
2019-03-12T05:25:51.169Z,3.84
2019-03-12T05:26:51.151Z,3.77
2019-03-12T05:27:51.147Z,3.71
2019-03-12T05:28:51.115Z,3.86
2019-03-12T05:29:51.100Z,3.75
2019-03-12T05:30:51.085Z,3.74
2019-03-12T05:31:51.081Z,3.80
2019-03-12T05:32:51.192Z,3.75
2019-03-12T05:33:51.054Z,3.78
2019-03-12T05:34:51.045Z,3.75
2019-03-12T05:35:51.050Z,3.77
2019-03-12T05:36:51.028Z,3.74
2019-03-12T05:37:51.050Z,3.77
2019-03-12T05:38:51.014Z,3.77
2019-03-12T05:39:51.000Z,3.84
2019-03-12T05:40:50.990Z,3.74
2019-03-12T05:41:50.978Z,3.78
2019-03-12T05:42:50.965Z,3.74
2019-03-12T05:43:50.976Z,3.78
2019-03-12T05:44:50.999Z,3.75
2019-03-12T05:45:50.936Z,3.77
2019-03-12T05:46:50.925Z,3.77
2019-03-12T05:47:50.914Z,3.71
2019-03-12T05:48:50.920Z,3.86
2019-03-12T05:49:50.927Z,3.75
2019-03-12T05:50:50.885Z,3.84
2019-03-12T05:51:50.871Z,3.72
2019-03-12T05:52:50.892Z,3.78
2019-03-12T05:53:50.845Z,3.81
2019-03-12T05:54:50.841Z,3.84
2019-03-12T05:55:50.847Z,3.77
2019-03-12T05:56:50.823Z,3.82
2019-03-12T05:57:50.812Z,3.72
2019-03-12T05:58:50.799Z,3.82
2019-03-12T05:59:50.793Z,3.81
2019-03-12T06:00:50.800Z,3.74
2019-03-12T06:01:50.763Z,3.74
2019-03-12T06:02:50.756Z,3.78
2019-03-12T06:03:50.747Z,3.71
2019-03-12T06:04:50.740Z,3.86
2019-03-12T06:05:51.349Z,3.77
2019-03-12T06:06:50.716Z,3.80
2019-03-12T06:07:50.709Z,3.75
2019-03-12T06:08:50.691Z,3.80
2019-03-12T06:09:50.692Z,3.89
2019-03-12T06:10:50.700Z,3.90
2019-03-12T06:11:50.666Z,3.84
2019-03-12T06:12:50.661Z,3.81
2019-03-12T06:13:50.642Z,3.88
2019-03-12T06:14:50.632Z,3.89
2019-03-12T06:15:53.235Z,3.88
2019-03-12T06:16:50.603Z,3.75
2019-03-12T06:17:50.603Z,3.75
2019-03-12T06:18:50.589Z,3.84
2019-03-12T06:19:50.575Z,3.84
2019-03-12T06:20:50.596Z,3.89
2019-03-12T06:21:50.565Z,3.92
2019-03-12T06:22:50.546Z,3.99
2019-03-12T06:23:50.551Z,3.92
2019-03-12T06:24:50.534Z,4.00
2019-03-12T06:25:50.513Z,3.98
2019-03-12T06:26:50.525Z,3.95
2019-03-12T06:27:50.487Z,3.98
2019-03-12T06:28:50.482Z,4.00
2019-03-12T06:29:50.481Z,4.11
2019-03-12T06:30:50.467Z,4.08
2019-03-12T06:31:50.499Z,4.10
2019-03-12T06:32:50.444Z,4.10
2019-03-12T06:33:50.427Z,4.14
2019-03-12T06:34:50.423Z,4.18
2019-03-12T06:35:50.422Z,4.17
2019-03-12T06:36:50.406Z,4.08
2019-03-12T06:37:50.690Z,4.06
2019-03-12T06:38:50.384Z,4.06
2019-03-12T06:39:50.369Z,4.13
2019-03-12T06:40:50.463Z,4.16
2019-03-12T06:41:50.350Z,4.21
2019-03-12T06:42:50.366Z,4.17
2019-03-12T06:43:50.340Z,4.14
2019-03-12T06:44:50.328Z,4.29
2019-03-12T06:45:50.311Z,4.21
2019-03-12T06:46:50.295Z,4.25
2019-03-12T06:47:50.335Z,4.18
2019-03-12T06:48:50.281Z,4.25
2019-03-12T06:49:50.272Z,4.36
2019-03-12T06:50:50.257Z,4.29
2019-03-12T06:51:50.241Z,4.38
2019-03-12T06:52:50.237Z,4.29
2019-03-12T06:53:50.247Z,4.47
2019-03-12T06:54:50.220Z,4.44
2019-03-12T06:55:50.208Z,4.49
2019-03-12T06:56:50.196Z,4.32
2019-03-12T06:57:50.182Z,4.42
2019-03-12T06:58:50.201Z,4.39
2019-03-12T06:59:50.162Z,4.36
2019-03-12T07:00:50.156Z,4.38
2019-03-12T07:01:50.145Z,4.32
2019-03-12T07:02:50.133Z,4.34
2019-03-12T07:03:50.153Z,4.36
2019-03-12T07:04:50.115Z,4.35
2019-03-12T07:05:50.095Z,4.31
2019-03-12T07:06:50.092Z,4.25
2019-03-12T07:07:50.085Z,4.25
2019-03-12T07:08:50.075Z,4.20
2019-03-12T07:09:50.079Z,4.21
2019-03-12T07:10:50.046Z,4.28
2019-03-12T07:11:50.042Z,4.24
2019-03-12T07:12:50.062Z,4.25
2019-03-12T07:13:50.030Z,4.21
2019-03-12T07:14:50.050Z,4.24
2019-03-12T07:15:50.030Z,4.25
2019-03-12T07:16:49.991Z,4.20
2019-03-12T07:17:49.978Z,4.31
2019-03-12T07:18:49.974Z,4.42
2019-03-12T07:19:49.968Z,4.68
2019-03-12T07:20:49.976Z,4.71
2019-03-12T07:21:49.955Z,4.86
2019-03-12T07:22:49.937Z,5.02
2019-03-12T07:23:49.924Z,4.90
2019-03-12T07:24:49.931Z,4.62
2019-03-12T07:25:51.063Z,4.64
2019-03-12T07:26:49.920Z,4.51
2019-03-12T07:27:49.884Z,4.24
2019-03-12T07:28:50.898Z,4.25
2019-03-12T07:29:49.860Z,4.32
2019-03-12T07:30:49.876Z,4.36
2019-03-12T07:31:49.838Z,4.44
2019-03-12T07:32:49.828Z,4.50
2019-03-12T07:33:49.833Z,4.50
2019-03-12T07:34:49.814Z,4.68
2019-03-12T07:35:49.809Z,4.75
2019-03-12T07:36:49.836Z,4.72
2019-03-12T07:37:49.802Z,4.67
2019-03-12T07:38:49.771Z,4.79
2019-03-12T07:39:49.765Z,4.77
2019-03-12T07:40:49.746Z,4.68
2019-03-12T07:41:49.756Z,4.77
2019-03-12T07:42:49.722Z,4.83
2019-03-12T07:43:49.717Z,4.77
2019-03-12T07:44:49.698Z,4.74
2019-03-12T07:45:49.704Z,4.75
2019-03-12T07:46:49.706Z,4.80
2019-03-12T07:47:49.697Z,5.17
2019-03-12T07:48:49.739Z,5.99
2019-03-12T07:49:49.725Z,7.95
2019-03-12T07:50:49.634Z,8.02
2019-03-12T07:51:49.645Z,7.44
2019-03-12T07:52:49.617Z,6.78
2019-03-12T07:53:58.849Z,6.43
2019-03-12T07:54:50.600Z,6.08
2019-03-12T07:55:49.590Z,5.87
2019-03-12T07:56:49.610Z,5.74
2019-03-12T07:57:49.570Z,5.69
2019-03-12T07:58:49.558Z,5.69
2019-03-12T07:59:49.555Z,5.74
2019-03-12T08:00:49.537Z,5.67
2019-03-12T08:01:49.533Z,5.65
2019-03-12T08:02:49.535Z,5.41
2019-03-12T08:03:49.533Z,5.32
2019-03-12T08:04:49.490Z,5.23
2019-03-12T08:05:49.494Z,5.15
2019-03-12T08:06:49.472Z,5.15
2019-03-12T08:07:49.491Z,5.09
2019-03-12T08:08:49.465Z,5.14
2019-03-12T08:09:49.435Z,5.11
2019-03-12T08:10:49.425Z,5.12
2019-03-12T08:11:49.427Z,5.09
2019-03-12T08:12:49.441Z,5.08
2019-03-12T08:13:49.402Z,5.19
2019-03-12T08:14:49.386Z,5.15
2019-03-12T08:15:50.583Z,5.23
2019-03-12T08:16:49.366Z,5.26
2019-03-12T08:17:49.379Z,5.23
2019-03-12T08:18:49.354Z,5.15
2019-03-12T08:19:49.390Z,5.12
2019-03-12T08:20:49.326Z,5.27
2019-03-12T08:21:49.906Z,5.02
2019-03-12T08:22:49.307Z,5.05
2019-03-12T08:23:49.315Z,5.17
2019-03-12T08:24:49.284Z,5.14
2019-03-12T08:25:49.278Z,5.26
2019-03-12T08:26:49.259Z,5.30
2019-03-12T08:27:49.241Z,5.48
2019-03-12T08:28:49.247Z,5.55
2019-03-12T08:29:49.225Z,5.60
2019-03-12T08:30:49.219Z,5.60
2019-03-12T08:31:49.211Z,5.52
2019-03-12T08:32:49.196Z,5.51
2019-03-12T08:33:51.036Z,5.55
2019-03-12T08:34:49.183Z,5.58
2019-03-12T08:35:49.173Z,5.67
2019-03-12T08:36:49.152Z,5.65
2019-03-12T08:37:49.142Z,5.62
2019-03-12T08:38:49.175Z,5.70
2019-03-12T08:39:49.122Z,5.81
2019-03-12T08:40:52.703Z,5.81
2019-03-12T08:41:49.102Z,5.78
2019-03-12T08:42:54.694Z,5.75
2019-03-12T08:43:50.081Z,5.99
2019-03-12T08:44:49.067Z,6.08
2019-03-12T08:45:49.849Z,6.21
2019-03-12T08:46:49.061Z,6.25
2019-03-12T08:47:49.045Z,6.08
2019-03-12T08:48:49.040Z,5.98
2019-03-12T08:49:49.061Z,5.95
2019-03-12T08:50:49.006Z,5.96
2019-03-12T08:51:48.998Z,5.98
2019-03-12T08:52:48.988Z,5.99
2019-03-12T08:53:48.977Z,5.98
2019-03-12T08:54:54.150Z,6.06
2019-03-12T08:55:49.951Z,6.06
2019-03-12T08:56:48.939Z,6.16
2019-03-12T08:57:48.939Z,6.19
2019-03-12T08:58:48.920Z,6.24
2019-03-12T08:59:48.941Z,6.33
2019-03-12T09:00:48.900Z,6.42
2019-03-12T09:01:48.895Z,6.46
2019-03-12T09:02:48.881Z,6.35
2019-03-12T09:03:48.884Z,6.33
2019-03-12T09:04:48.870Z,6.39
2019-03-12T09:05:48.903Z,6.36
2019-03-12T09:06:48.870Z,6.25
2019-03-12T09:07:48.833Z,6.17
2019-03-12T09:08:48.820Z,6.13
2019-03-12T09:09:48.819Z,6.13
2019-03-12T09:10:48.833Z,6.02
2019-03-12T09:11:48.794Z,6.01
2019-03-12T09:12:48.800Z,6.13
2019-03-12T09:13:48.765Z,6.06
2019-03-12T09:14:48.752Z,6.19
2019-03-12T09:15:48.759Z,6.25
2019-03-12T09:16:48.770Z,6.43
2019-03-12T09:17:48.724Z,6.61
2019-03-12T09:18:48.717Z,6.79
2019-03-12T09:19:48.694Z,6.97
2019-03-12T09:20:48.684Z,7.29
2019-03-12T09:21:48.706Z,7.52
2019-03-12T09:22:48.672Z,7.81
2019-03-12T09:23:48.694Z,8.36
2019-03-12T09:24:48.669Z,8.25
2019-03-12T09:25:48.631Z,9.59
2019-03-12T09:26:48.627Z,11.41
2019-03-12T09:27:48.631Z,9.50
2019-03-12T09:28:48.755Z,8.40
2019-03-12T09:29:48.596Z,7.55
2019-03-12T09:30:48.684Z,7.16
2019-03-12T09:31:48.572Z,7.00
2019-03-12T09:32:48.572Z,6.78
2019-03-12T09:33:48.583Z,6.79
2019-03-12T09:34:48.547Z,7.07
2019-03-12T09:35:48.539Z,7.30
2019-03-12T09:36:48.532Z,7.86
2019-03-12T09:37:48.503Z,9.03
2019-03-12T09:38:48.492Z,9.50
2019-03-12T09:39:48.513Z,10.24
2019-03-12T09:40:48.472Z,11.11
2019-03-12T09:41:49.208Z,11.69
2019-03-12T09:42:48.511Z,12.56
2019-03-12T09:43:48.465Z,11.93
2019-03-12T09:44:49.222Z,11.62
2019-03-12T09:45:49.412Z,11.69
2019-03-12T09:46:48.408Z,11.44
2019-03-12T09:47:48.407Z,11.74
2019-03-12T09:48:48.391Z,11.39
2019-03-12T09:49:48.373Z,11.03
2019-03-12T09:50:48.387Z,11.39
2019-03-12T09:51:48.357Z,10.81
2019-03-12T09:52:48.338Z,11.11
2019-03-12T09:53:48.351Z,10.99
2019-03-12T09:54:48.355Z,10.22
2019-03-12T09:55:48.345Z,9.31
2019-03-12T09:56:48.344Z,8.80
2019-03-12T09:57:48.336Z,8.63
2019-03-12T09:58:48.280Z,8.71
2019-03-12T09:59:48.262Z,8.75
2019-03-12T10:00:48.274Z,9.13
2019-03-12T10:01:48.257Z,9.52
2019-03-12T10:02:48.236Z,9.53
2019-03-12T10:03:48.221Z,9.50
2019-03-12T10:04:48.215Z,9.19
2019-03-12T10:05:48.236Z,8.80
2019-03-12T10:06:48.198Z,8.75
2019-03-12T10:07:48.195Z,8.49
2019-03-12T10:08:48.246Z,8.58
2019-03-12T10:09:48.168Z,8.78
2019-03-12T10:10:48.219Z,8.60
2019-03-12T10:11:48.171Z,8.50
2019-03-12T10:12:48.138Z,8.27
2019-03-12T10:13:48.137Z,8.06
2019-03-12T10:14:48.135Z,8.24
2019-03-12T10:15:48.220Z,8.52
2019-03-12T10:16:48.098Z,8.65
2019-03-12T10:17:48.097Z,9.01
2019-03-12T10:18:48.079Z,9.31
2019-03-12T10:19:48.092Z,9.49
2019-03-12T10:20:48.063Z,9.32
2019-03-12T10:21:48.101Z,9.12
2019-03-12T10:22:48.032Z,8.76
2019-03-12T10:23:48.015Z,9.24
2019-03-12T10:24:48.013Z,9.65
2019-03-12T10:25:47.999Z,9.42
2019-03-12T10:26:48.005Z,9.12
2019-03-12T10:27:47.976Z,8.85
2019-03-12T10:28:47.970Z,8.52
2019-03-12T10:29:47.966Z,8.39
2019-03-12T10:30:47.937Z,8.76
2019-03-12T10:31:47.956Z,9.60
2019-03-12T10:32:47.912Z,9.96
2019-03-12T10:33:47.935Z,9.71
2019-03-12T10:34:47.902Z,9.53
2019-03-12T10:35:47.882Z,9.40
2019-03-12T10:36:47.908Z,9.13
2019-03-12T10:37:47.899Z,9.63
2019-03-12T10:38:47.861Z,11.75
2019-03-12T10:39:47.850Z,12.55
2019-03-12T10:45:22.361Z,12.08
2019-03-12T10:46:22.120Z,13.57
2019-03-12T10:47:22.105Z,12.71
2019-03-12T10:48:22.111Z,12.15
2019-03-12T10:49:22.093Z,13.19
2019-03-12T10:50:22.094Z,12.62
2019-03-12T10:51:22.066Z,10.99
2019-03-12T10:52:22.060Z,10.73
2019-03-12T10:53:22.048Z,12.56
2019-03-12T10:54:22.043Z,12.05
2019-03-12T10:55:22.047Z,11.74
2019-03-12T10:56:22.015Z,12.63
2019-03-12T10:57:21.996Z,12.87
2019-03-12T10:58:21.991Z,14.16
2019-03-12T10:59:21.995Z,14.64
2019-03-12T11:00:21.985Z,13.75
2019-03-12T11:01:21.962Z,12.38
2019-03-12T11:02:21.945Z,11.21
2019-03-12T11:03:21.981Z,10.46
2019-03-12T11:04:21.935Z,11.82
2019-03-12T11:05:22.043Z,13.07
2019-03-12T11:06:21.920Z,14.01
2019-03-12T11:07:21.898Z,14.31
2019-03-12T11:08:21.901Z,14.13
2019-03-12T11:09:21.937Z,14.12
2019-03-12T11:10:21.903Z,14.06
2019-03-12T11:11:21.853Z,14.95
2019-03-12T11:12:21.847Z,15.89
2019-03-12T11:13:21.840Z,16.32
2019-03-12T11:14:21.841Z,16.25
2019-03-12T11:15:21.816Z,16.42
2019-03-12T11:16:21.798Z,13.90
2019-03-12T11:17:21.809Z,12.03
2019-03-12T11:18:21.786Z,11.45
2019-03-12T11:19:21.776Z,12.25
2019-03-12T11:20:21.764Z,12.62
2019-03-12T11:21:21.736Z,13.44
2019-03-12T11:22:21.737Z,14.48
2019-03-12T11:23:21.733Z,15.56
2019-03-12T11:24:21.715Z,16.44
2019-03-12T11:25:27.074Z,15.68
2019-03-12T11:26:22.697Z,15.22
2019-03-12T11:27:21.695Z,13.96
2019-03-12T11:28:21.667Z,12.55
2019-03-12T11:29:21.675Z,12.38
2019-03-12T11:30:21.654Z,13.04
2019-03-12T11:31:21.666Z,14.46
2019-03-12T11:32:21.621Z,14.80
2019-03-12T11:33:21.610Z,15.40
2019-03-12T11:34:21.606Z,15.11
2019-03-12T11:35:21.590Z,13.90
2019-03-12T11:36:21.605Z,12.49
2019-03-12T11:37:21.600Z,11.66
2019-03-12T11:38:21.584Z,12.88
2019-03-12T11:39:21.554Z,14.19
2019-03-12T11:40:21.595Z,13.21
2019-03-12T11:41:21.533Z,12.31
2019-03-12T11:42:21.534Z,11.67
2019-03-12T11:43:21.503Z,11.39
2019-03-12T11:44:21.501Z,11.66
2019-03-12T11:45:34.779Z,11.27
2019-03-12T11:46:22.472Z,10.90
2019-03-12T11:47:22.433Z,10.75
2019-03-12T11:48:21.473Z,10.51
2019-03-12T11:49:21.459Z,11.33
2019-03-12T11:50:21.684Z,11.62
2019-03-12T11:51:21.469Z,13.14
2019-03-12T11:52:21.417Z,14.02
2019-03-12T11:53:21.422Z,14.24
2019-03-12T11:54:21.382Z,13.24
2019-03-12T11:55:21.382Z,12.46
2019-03-12T11:56:21.383Z,11.66
2019-03-12T11:57:21.382Z,11.42
2019-03-12T11:58:21.370Z,11.39
2019-03-12T11:59:21.366Z,11.23
2019-03-12T12:00:21.320Z,11.06
2019-03-12T12:01:21.308Z,10.75
2019-03-12T12:02:21.308Z,11.03
2019-03-12T12:03:21.306Z,10.68
2019-03-12T12:04:21.366Z,10.76
2019-03-12T12:05:21.280Z,11.78
2019-03-12T12:06:21.283Z,13.50
2019-03-12T12:07:21.265Z,14.45
2019-03-12T12:08:21.241Z,15.05
2019-03-12T12:09:21.249Z,15.23
2019-03-12T12:10:21.249Z,15.28
2019-03-12T12:11:21.206Z,14.82
2019-03-12T12:12:21.191Z,14.56
2019-03-12T12:13:21.185Z,14.83
2019-03-12T12:14:21.175Z,15.38
2019-03-12T12:15:21.187Z,14.94
2019-03-12T12:16:21.152Z,15.19
2019-03-12T12:17:21.149Z,15.34
2019-03-12T12:18:21.148Z,15.64
2019-03-12T12:19:21.119Z,15.27
2019-03-12T12:20:29.418Z,14.08
2019-03-12T12:21:22.119Z,13.29
2019-03-12T12:22:21.092Z,13.12
2019-03-12T12:23:21.081Z,12.81
2019-03-12T12:24:21.066Z,13.81
2019-03-12T12:25:21.051Z,13.19
2019-03-12T12:26:21.070Z,14.49
2019-03-12T12:27:21.028Z,15.27
2019-03-12T12:28:21.024Z,15.60
2019-03-12T12:29:21.015Z,16.14
2019-03-12T12:30:21.021Z,16.10
2019-03-12T12:31:21.097Z,15.16
2019-03-12T12:32:21.006Z,14.82
2019-03-12T12:33:20.965Z,15.38
2019-03-12T12:34:20.961Z,15.80
2019-03-12T12:35:20.954Z,15.41
2019-03-12T12:36:20.933Z,14.94
2019-03-12T12:37:20.940Z,14.95
2019-03-12T12:38:23.459Z,14.57
2019-03-12T12:39:20.930Z,14.53
2019-03-12T12:40:20.908Z,14.42
2019-03-12T12:41:20.882Z,14.35
2019-03-12T12:42:20.889Z,14.60
2019-03-12T12:43:20.892Z,14.66
2019-03-12T12:44:20.850Z,14.72
2019-03-12T12:45:20.835Z,14.53
2019-03-12T12:46:20.826Z,14.16
2019-03-12T12:47:20.817Z,14.72
2019-03-12T12:48:20.819Z,15.20
2019-03-12T12:49:20.824Z,14.94
2019-03-12T12:50:20.786Z,13.46
2019-03-12T12:51:20.774Z,13.04
2019-03-12T12:52:20.774Z,13.71
2019-03-12T12:53:20.783Z,13.81
2019-03-12T12:54:20.782Z,13.72
2019-03-12T12:55:20.736Z,12.79
2019-03-12T12:56:20.719Z,11.97
2019-03-12T12:57:20.732Z,11.87
2019-03-12T12:58:20.724Z,11.78
2019-03-12T12:59:20.690Z,12.84
2019-03-12T13:00:20.703Z,13.16
2019-03-12T13:01:20.677Z,14.04
2019-03-12T13:02:20.694Z,14.75
2019-03-12T13:03:20.672Z,15.33
2019-03-12T13:04:20.631Z,15.58
2019-03-12T13:05:20.643Z,15.35
2019-03-12T13:06:20.625Z,14.30
2019-03-12T13:07:20.605Z,14.06
2019-03-12T13:08:20.597Z,14.19
2019-03-12T13:09:20.600Z,13.96
2019-03-12T13:10:20.602Z,13.81
2019-03-12T13:11:20.564Z,12.99
2019-03-12T13:12:20.564Z,12.77
2019-03-12T13:13:20.544Z,12.34
2019-03-12T13:14:20.540Z,12.34
2019-03-12T13:15:20.522Z,12.52
2019-03-12T13:16:25.466Z,12.30
2019-03-12T13:17:21.492Z,12.15